Time;durP1;ratioP1;P1;durP2;ratioP2;P2;SDS_P1;SDS_P2;PMS_P1;PMS_P2;Temp;Humidity;BMP_temperature;BMP_pressure;BME280_temperature;BME280_humidity;BME280_pressure;Samples;Min_cycle;Max_cycle;Signal;HPM_P1;HPM_P2
2022/09/20 00:00:41;;;;;;;2.83;1.20;;;;;;;;;;5046603;28;20056;-60
2022/09/20 00:03:06;;;;;;;2.72;1.30;;;;;;;;;;5047540;28;20112;-60
2022/09/20 00:05:34;;;;;;;1.70;1.23;;;;;;;;;;5046198;28;20522;-60
2022/09/20 00:08:00;;;;;;;2.00;1.52;;;;;;;;;;5044424;28;20072;-60
2022/09/20 00:10:26;;;;;;;3.65;1.27;;;;;;;;;;5049754;28;20040;-60
2022/09/20 00:12:51;;;;;;;1.58;1.23;;;;;;;;;;5050754;28;20041;-60
2022/09/20 00:15:17;;;;;;;1.67;0.95;;;;;;;;;;5052577;28;20440;-60
2022/09/20 00:17:42;;;;;;;2.22;1.25;;;;;;;;;;5070078;28;20082;-60
2022/09/20 00:20:08;;;;;;;1.90;1.23;;;;;;;;;;5070093;28;20052;-60
2022/09/20 00:22:33;;;;;;;3.17;1.23;;;;;;;;;;5066718;28;20140;-60
2022/09/20 00:24:58;;;;;;;5.50;1.30;;;;;;;;;;5062214;28;20459;-60
2022/09/20 00:27:23;;;;;;;8.63;1.60;;;;;;;;;;5050091;28;20031;-60
2022/09/20 00:29:49;;;;;;;3.97;1.30;;;;;;;;;;5050679;28;20038;-61
2022/09/20 00:32:14;;;;;;;2.47;1.27;;;;;;;;;;5051381;28;20037;-60
2022/09/20 00:37:23;;;;;;;;;;;;;;;;;;5050621;28;20043;-60
2022/09/20 00:39:48;;;;;;;5.63;2.00;;;;;;;;;;5049676;28;19921;-60
2022/09/20 00:42:14;;;;;;;3.08;1.80;;;;;;;;;;5052178;28;20264;-60
2022/09/20 00:45:02;;;;;;;1.40;1.15;;;;;;;;;;5049960;28;20485;-60
2022/09/20 00:47:34;;;;;;;2.95;1.50;;;;;;;;;;5049613;28;20175;-60
2022/09/20 00:50:19;;;;;;;2.20;1.30;;;;;;;;;;5049710;28;20037;-60
2022/09/20 00:52:48;;;;;;;5.03;1.50;;;;;;;;;;5052079;28;20049;-60
2022/09/20 00:55:14;;;;;;;2.88;1.70;;;;;;;;;;5049853;28;20037;-60
2022/09/20 00:57:42;;;;;;;4.57;1.80;;;;;;;;;;5034232;28;20034;-60
2022/09/20 01:00:10;;;;;;;2.33;1.85;;;;;;;;;;5029474;28;20057;-60
2022/09/20 01:02:42;;;;;;;2.03;1.35;;;;;;;;;;5029756;28;20037;-60
2022/09/20 01:05:09;;;;;;;3.97;1.77;;;;;;;;;;5051569;28;20044;-60
2022/09/20 01:07:34;;;;;;;3.15;1.80;;;;;;;;;;5041231;28;20033;-60
2022/09/20 01:10:00;;;;;;;3.05;1.70;;;;;;;;;;5029289;28;20408;-60
2022/09/20 01:12:29;;;;;;;5.38;1.90;;;;;;;;;;5028752;28;20548;-60
2022/09/20 01:14:56;;;;;;;3.53;2.13;;;;;;;;;;5029923;28;20442;-60
2022/09/20 01:17:23;;;;;;;2.95;1.55;;;;;;;;;;5028731;28;20042;-60
2022/09/20 01:20:14;;;;;;;3.10;1.90;;;;;;;;;;5030355;28;20060;-60
2022/09/20 01:23:04;;;;;;;4.57;2.05;;;;;;;;;;5064298;28;20037;-61
2022/09/20 01:26:17;;;;;;;3.53;2.17;;;;;;;;;;5049009;28;20128;-60
2022/09/20 01:28:46;;;;;;;2.05;1.50;;;;;;;;;;5041160;28;20577;-62
2022/09/20 01:31:32;;;;;;;7.45;2.13;;;;;;;;;;5048596;28;20053;-60
2022/09/20 01:34:12;;;;;;;6.38;1.85;;;;;;;;;;5048847;28;20045;-60
2022/09/20 01:36:40;;;;;;;2.80;1.88;;;;;;;;;;5049064;28;20057;-60
2022/09/20 01:39:29;;;;;;;4.60;1.90;;;;;;;;;;5049221;28;20079;-60
2022/09/20 01:42:03;;;;;;;3.25;1.83;;;;;;;;;;5028430;28;20072;-60
2022/09/20 01:44:29;;;;;;;3.00;2.00;;;;;;;;;;5046405;28;20037;-60
2022/09/20 01:47:39;;;;;;;4.70;2.10;;;;;;;;;;5035900;28;20139;-60
2022/09/20 01:50:19;;;;;;;2.88;1.50;;;;;;;;;;5021402;28;20052;-60
2022/09/20 01:53:09;;;;;;;3.58;1.92;;;;;;;;;;5022185;28;20446;-60
2022/09/20 01:55:56;;;;;;;4.00;1.88;;;;;;;;;;5033196;28;20692;-60
2022/09/20 01:58:44;;;;;;;3.63;1.70;;;;;;;;;;5037034;28;20122;-60
2022/09/20 02:01:43;;;;;;;3.83;1.80;;;;;;;;;;5047996;28;20048;-60
2022/09/20 02:04:17;;;;;;;4.95;1.95;;;;;;;;;;5040110;28;20041;-60
2022/09/20 02:07:00;;;;;;;;;;;;;;;;;;5028924;28;20037;-60
2022/09/20 02:09:57;;;;;;;4.82;2.35;;;;;;;;;;5028597;28;19951;-60
2022/09/20 02:12:57;;;;;;;4.25;2.15;;;;;;;;;;5038519;28;20033;-60
2022/09/20 02:15:23;;;;;;;4.13;1.92;;;;;;;;;;5008775;28;20184;-60
2022/09/20 02:17:57;;;;;;;7.35;2.20;;;;;;;;;;5028157;28;20541;-60
2022/09/20 02:20:43;;;;;;;4.20;1.58;;;;;;;;;;5028094;28;20029;-60
2022/09/20 02:23:24;;;;;;;3.30;1.73;;;;;;;;;;5036422;28;20044;-60
2022/09/20 02:26:19;;;;;;;3.17;1.90;;;;;;;;;;5045681;28;20087;-60
2022/09/20 02:28:53;;;;;;;3.55;1.20;;;;;;;;;;5036504;28;20148;-60
2022/09/20 02:32:06;;;;;;;5.35;1.80;;;;;;;;;;5027247;28;20037;-61
2022/09/20 02:34:40;;;;;;;3.20;1.83;;;;;;;;;;5010545;28;20055;-60
2022/09/20 02:37:50;;;;;;;3.55;2.00;;;;;;;;;;5026417;28;20045;-60
2022/09/20 02:40:18;;;;;;;5.18;1.92;;;;;;;;;;5014871;28;20045;-60
2022/09/20 02:42:53;;;;;;;4.60;1.83;;;;;;;;;;5027103;28;20037;-60
2022/09/20 02:45:29;;;;;;;3.22;1.90;;;;;;;;;;5028893;28;20029;-60
2022/09/20 02:48:01;;;;;;;3.58;1.75;;;;;;;;;;5023211;28;20064;-61
2022/09/20 02:51:11;;;;;;;4.13;1.60;;;;;;;;;;5007673;28;20529;-60
2022/09/20 02:53:54;;;;;;;4.25;1.98;;;;;;;;;;5024716;28;20281;-60
2022/09/20 02:56:41;;;;;;;6.57;2.00;;;;;;;;;;5027286;28;20051;-60
2022/09/20 02:59:22;;;;;;;3.00;1.95;;;;;;;;;;5047524;28;20064;-60
2022/09/20 03:02:25;;;;;;;4.38;1.67;;;;;;;;;;5045287;28;20041;-60
2022/09/20 03:05:13;;;;;;;4.13;1.83;;;;;;;;;;5019819;28;20079;-60
2022/09/20 03:08:00;;;;;;;3.97;2.05;;;;;;;;;;5026250;28;20041;-60
2022/09/20 03:10:46;;;;;;;3.95;2.03;;;;;;;;;;5027347;28;20120;-60
2022/09/20 03:13:33;;;;;;;2.50;1.83;;;;;;;;;;5025845;28;20060;-60
2022/09/20 03:16:37;;;;;;;4.30;2.08;;;;;;;;;;5025142;28;20655;-60
2022/09/20 03:19:26;;;;;;;3.58;2.15;;;;;;;;;;5024096;28;20048;-60
2022/09/20 03:22:25;;;;;;;3.50;2.22;;;;;;;;;;5027189;28;20124;-60
2022/09/20 03:25:03;;;;;;;3.45;1.90;;;;;;;;;;5026414;28;20084;-60
2022/09/20 03:28:01;;;;;;;3.78;1.63;;;;;;;;;;5007305;28;20037;-60
2022/09/20 03:30:36;;;;;;;5.05;2.05;;;;;;;;;;5007344;28;20032;-60
2022/09/20 03:33:43;;;;;;;3.58;2.03;;;;;;;;;;5019258;28;20024;-60
2022/09/20 03:36:21;;;;;;;2.47;1.92;;;;;;;;;;5030537;28;20050;-60
2022/09/20 03:38:47;;;;;;;4.50;1.98;;;;;;;;;;5047151;28;20536;-60
2022/09/20 03:41:12;;;;;;;5.90;2.65;;;;;;;;;;5043662;28;20049;-60
2022/09/20 03:44:04;;;;;;;4.45;2.20;;;;;;;;;;5069870;28;20177;-60
2022/09/20 03:46:44;;;;;;;4.78;2.58;;;;;;;;;;5051134;28;20040;-60
2022/09/20 03:49:18;;;;;;;9.60;2.70;;;;;;;;;;5050831;28;20037;-60
2022/09/20 03:52:08;;;;;;;7.18;2.50;;;;;;;;;;5050690;28;20549;-60
2022/09/20 03:55:30;;;;;;;5.72;2.00;;;;;;;;;;5050361;28;20017;-60
2022/09/20 03:58:19;;;;;;;7.25;2.17;;;;;;;;;;5050972;28;20033;-60
2022/09/20 04:01:03;;;;;;;6.82;2.42;;;;;;;;;;5049089;28;20678;-60
2022/09/20 04:03:44;;;;;;;5.65;2.17;;;;;;;;;;5050179;28;20017;-60
2022/09/20 04:06:16;;;;;;;4.28;2.10;;;;;;;;;;5049786;28;20032;-60
2022/09/20 04:09:13;;;;;;;4.75;2.50;;;;;;;;;;5049034;28;20533;-60
2022/09/20 04:12:16;;;;;;;3.78;2.28;;;;;;;;;;5050474;28;20120;-61
2022/09/20 04:15:11;;;;;;;4.15;2.40;;;;;;;;;;5050678;28;20041;-60
2022/09/20 04:18:24;;;;;;;5.70;2.70;;;;;;;;;;5052072;28;20039;-60
2022/09/20 04:20:58;;;;;;;7.95;3.30;;;;;;;;;;5051758;28;20044;-60
2022/09/20 04:23:34;;;;;;;6.40;2.90;;;;;;;;;;5049962;28;20037;-60
2022/09/20 04:26:01;;;;;;;5.82;2.85;;;;;;;;;;5036426;28;20057;-60
2022/09/20 04:28:51;;;;;;;8.70;3.22;;;;;;;;;;5030196;28;20037;-60
2022/09/20 04:31:39;;;;;;;4.05;2.42;;;;;;;;;;5030074;28;20038;-60
2022/09/20 04:34:16;;;;;;;4.72;2.60;;;;;;;;;;5030036;28;20133;-60
2022/09/20 04:37:03;;;;;;;8.43;2.75;;;;;;;;;;5029498;28;20116;-60
2022/09/20 04:40:08;;;;;;;4.47;2.05;;;;;;;;;;5030175;28;20033;-60
2022/09/20 04:42:43;;;;;;;6.70;2.97;;;;;;;;;;5056357;28;20041;-60
2022/09/20 04:45:27;;;;;;;4.95;2.20;;;;;;;;;;5067012;28;20078;-60
2022/09/20 04:47:57;;;;;;;7.38;3.17;;;;;;;;;;5035691;28;20045;-60
2022/09/20 04:50:33;;;;;;;5.75;2.95;;;;;;;;;;5030631;28;20591;-60
2022/09/20 04:53:17;;;;;;;6.63;3.15;;;;;;;;;;5043353;28;20045;-60
2022/09/20 04:55:51;;;;;;;12.02;3.90;;;;;;;;;;5036837;28;20041;-60
2022/09/20 04:58:36;;;;;;;10.27;3.20;;;;;;;;;;5029441;28;20581;-60
2022/09/20 05:01:18;;;;;;;6.65;3.00;;;;;;;;;;5034522;28;20033;-60
2022/09/20 05:03:55;;;;;;;8.70;3.70;;;;;;;;;;5047829;28;20049;-60
2022/09/20 05:06:40;;;;;;;7.25;3.20;;;;;;;;;;5050128;28;20028;-60
2022/09/20 05:09:12;;;;;;;6.95;3.13;;;;;;;;;;5030049;28;20045;-60
2022/09/20 05:11:46;;;;;;;6.18;3.33;;;;;;;;;;5028797;28;20034;-60
2022/09/20 05:14:39;;;;;;;13.13;4.30;;;;;;;;;;5029597;28;20061;-60
2022/09/20 05:17:33;;;;;;;8.55;4.07;;;;;;;;;;5043344;28;20506;-60
2022/09/20 05:20:07;;;;;;;8.73;3.90;;;;;;;;;;5049486;28;20453;-61
2022/09/20 05:23:01;;;;;;;7.05;3.70;;;;;;;;;;5049263;28;20120;-60
2022/09/20 05:25:41;;;;;;;7.80;3.87;;;;;;;;;;5048638;28;20044;-60
2022/09/20 05:28:18;;;;;;;8.85;4.28;;;;;;;;;;5043013;28;20037;-60
2022/09/20 05:30:51;;;;;;;13.23;4.72;;;;;;;;;;5027723;28;20453;-60
2022/09/20 05:33:36;;;;;;;8.95;4.97;;;;;;;;;;5028516;28;20552;-61
2022/09/20 05:36:16;;;;;;;7.60;3.88;;;;;;;;;;5046599;28;20102;-60
2022/09/20 05:38:58;;;;;;;8.90;4.25;;;;;;;;;;5039891;28;20573;-60
2022/09/20 05:41:45;;;;;;;9.82;4.70;;;;;;;;;;5055958;28;20052;-60
2022/09/20 05:44:26;;;;;;;14.40;4.47;;;;;;;;;;5047884;28;20060;-60
2022/09/20 05:47:19;;;;;;;12.27;5.43;;;;;;;;;;5041269;28;20897;-60
2022/09/20 05:50:08;;;;;;;15.02;5.03;;;;;;;;;;5038699;28;20029;-60
2022/09/20 05:52:53;;;;;;;13.13;5.18;;;;;;;;;;5048508;28;20095;-60
2022/09/20 05:55:18;;;;;;;13.93;5.50;;;;;;;;;;5047118;28;20067;-60
2022/09/20 05:57:56;;;;;;;13.73;5.30;;;;;;;;;;5048516;28;20041;-60
2022/09/20 06:00:26;;;;;;;11.63;5.32;;;;;;;;;;5045921;28;20029;-60
2022/09/20 06:03:29;;;;;;;10.50;5.32;;;;;;;;;;5047917;28;20056;-60
2022/09/20 06:06:13;;;;;;;9.93;5.55;;;;;;;;;;5047758;28;20090;-60
2022/09/20 06:08:50;;;;;;;16.08;5.40;;;;;;;;;;5027893;28;20113;-61
2022/09/20 06:11:45;;;;;;;17.00;5.35;;;;;;;;;;5034574;28;20029;-60
2022/09/20 06:14:20;;;;;;;12.45;5.57;;;;;;;;;;5052654;28;20053;-61
2022/09/20 06:16:56;;;;;;;11.00;5.63;;;;;;;;;;5024579;28;20122;-61
2022/09/20 06:19:53;;;;;;;18.30;5.80;;;;;;;;;;5007984;28;20046;-61
2022/09/20 06:22:53;;;;;;;11.20;5.22;;;;;;;;;;5008578;28;20052;-61
2022/09/20 06:25:33;;;;;;;14.10;5.45;;;;;;;;;;5034300;28;20075;-61
2022/09/20 06:28:13;;;;;;;17.23;6.00;;;;;;;;;;5033530;28;20045;-61
2022/09/20 06:30:45;;;;;;;13.68;6.03;;;;;;;;;;5037311;28;20025;-61
2022/09/20 06:33:17;;;;;;;10.75;5.75;;;;;;;;;;5048224;28;20425;-61
2022/09/20 06:35:42;;;;;;;14.02;6.43;;;;;;;;;;5047041;28;20045;-61
2022/09/20 06:43:51;;;;;;;18.38;6.15;;;;;;;;;;5017563;28;20033;-60
2022/09/20 06:46:18;;;;;;;10.13;5.32;;;;;;;;;;5025298;28;20562;-61
2022/09/20 06:48:43;;;;;;;18.90;6.90;;;;;;;;;;5022994;28;20033;-61
2022/09/20 06:51:09;;;;;;;16.13;6.18;;;;;;;;;;5025649;28;20416;-61
2022/09/20 06:53:37;;;;;;;13.00;5.47;;;;;;;;;;5026751;28;20596;-61
2022/09/20 06:56:03;;;;;;;11.45;5.65;;;;;;;;;;5023695;28;20064;-61
2022/09/20 06:58:28;;;;;;;16.00;6.32;;;;;;;;;;5025766;28;20573;-61
2022/09/20 07:00:54;;;;;;;11.30;5.72;;;;;;;;;;5026824;28;20044;-61
2022/09/20 07:03:19;;;;;;;16.65;6.35;;;;;;;;;;5026638;28;20025;-61
2022/09/20 07:05:45;;;;;;;11.55;5.82;;;;;;;;;;5026201;28;20120;-61
2022/09/20 07:08:11;;;;;;;11.05;5.82;;;;;;;;;;5025704;28;20515;-61
2022/09/20 07:10:37;;;;;;;11.73;6.32;;;;;;;;;;5025280;28;20042;-61
2022/09/20 07:13:03;;;;;;;18.75;5.75;;;;;;;;;;5025402;28;20525;-61
2022/09/20 07:15:31;;;;;;;13.73;6.32;;;;;;;;;;5026492;28;20021;-61
2022/09/20 07:17:58;;;;;;;11.73;5.85;;;;;;;;;;5006869;28;20488;-61
2022/09/20 07:20:23;;;;;;;16.15;6.85;;;;;;;;;;5006145;28;20149;-61
2022/09/20 07:22:49;;;;;;;16.60;6.47;;;;;;;;;;5009164;28;20492;-61
2022/09/20 07:25:16;;;;;;;17.33;6.78;;;;;;;;;;5033982;28;20102;-61
2022/09/20 07:27:41;;;;;;;15.77;6.30;;;;;;;;;;5043651;28;20454;-62
2022/09/20 07:30:08;;;;;;;14.63;6.18;;;;;;;;;;5026953;28;20557;-61
2022/09/20 07:32:33;;;;;;;15.52;5.47;;;;;;;;;;5026026;28;20419;-60
2022/09/20 07:34:58;;;;;;;16.92;5.57;;;;;;;;;;5023945;28;20050;-61
2022/09/20 07:37:24;;;;;;;17.20;6.38;;;;;;;;;;5026638;28;20068;-61
2022/09/20 07:39:51;;;;;;;19.90;5.85;;;;;;;;;;5027106;28;20029;-61
2022/09/20 07:42:16;;;;;;;14.25;5.55;;;;;;;;;;5025960;28;20136;-60
2022/09/20 07:44:42;;;;;;;17.05;6.00;;;;;;;;;;5024028;28;20033;-61
2022/09/20 07:47:13;;;;;;;18.35;5.95;;;;;;;;;;5025925;28;20396;-61
2022/09/20 07:49:38;;;;;;;26.30;6.18;;;;;;;;;;5026789;28;20086;-61
2022/09/20 07:52:03;;;;;;;12.60;6.40;;;;;;;;;;5027258;28;20038;-60
2022/09/20 07:54:29;;;;;;;21.02;6.40;;;;;;;;;;5025624;28;20406;-60
2022/09/20 07:56:54;;;;;;;10.82;5.85;;;;;;;;;;5026890;28;20021;-60
2022/09/20 07:59:20;;;;;;;12.25;5.68;;;;;;;;;;5024737;28;20037;-61
2022/09/20 08:01:45;;;;;;;16.05;7.70;;;;;;;;;;5024539;28;20041;-61
2022/09/20 08:04:11;;;;;;;13.45;6.65;;;;;;;;;;5015980;28;20111;-61
2022/09/20 08:06:41;;;;;;;13.63;5.43;;;;;;;;;;5038233;28;20021;-61
2022/09/20 08:09:08;;;;;;;14.77;6.20;;;;;;;;;;5025809;28;20020;-61
2022/09/20 08:11:34;;;;;;;13.57;6.32;;;;;;;;;;5027102;28;20029;-61
2022/09/20 08:14:00;;;;;;;17.40;5.95;;;;;;;;;;5023038;28;20061;-61
2022/09/20 08:16:26;;;;;;;19.40;5.88;;;;;;;;;;5020345;28;20048;-61
2022/09/20 08:18:57;;;;;;;12.27;6.70;;;;;;;;;;5021034;28;20158;-61
2022/09/20 08:21:24;;;;;;;13.75;6.20;;;;;;;;;;5025677;28;20025;-60
2022/09/20 08:23:50;;;;;;;15.00;6.47;;;;;;;;;;5026284;28;20029;-61
2022/09/20 08:26:17;;;;;;;14.55;6.03;;;;;;;;;;5040098;28;20036;-61
2022/09/20 08:28:44;;;;;;;17.02;6.45;;;;;;;;;;5045554;28;20037;-61
2022/09/20 08:31:14;;;;;;;13.50;6.07;;;;;;;;;;5047781;28;20460;-61
2022/09/20 08:33:41;;;;;;;11.65;6.00;;;;;;;;;;5048997;28;20598;-60
2022/09/20 08:36:10;;;;;;;14.25;6.18;;;;;;;;;;5036474;28;20048;-61
2022/09/20 08:38:35;;;;;;;11.30;5.30;;;;;;;;;;5047939;28;20033;-61
2022/09/20 08:41:18;;;;;;;14.88;5.63;;;;;;;;;;5034830;28;20055;-60
2022/09/20 08:43:51;;;;;;;10.07;4.70;;;;;;;;;;5030072;28;20057;-61
2022/09/20 08:46:18;;;;;;;;;;;;;;;;;;5037990;28;20545;-61
2022/09/20 08:48:45;;;;;;;10.82;4.65;;;;;;;;;;5044417;28;19917;-61
2022/09/20 08:51:14;;;;;;;8.57;4.03;;;;;;;;;;5029890;28;20091;-61
2022/09/20 08:53:54;;;;;;;12.00;3.58;;;;;;;;;;5029383;28;20091;-61
2022/09/20 08:56:21;;;;;;;8.85;3.75;;;;;;;;;;5040936;28;20037;-60
2022/09/20 08:58:47;;;;;;;5.03;2.80;;;;;;;;;;5033417;28;20540;-60
2022/09/20 09:01:19;;;;;;;5.70;2.30;;;;;;;;;;5039517;28;20039;-61
2022/09/20 09:03:45;;;;;;;9.05;2.33;;;;;;;;;;5032149;28;20405;-60
2022/09/20 09:06:13;;;;;;;8.77;2.35;;;;;;;;;;5048905;28;20483;-61
2022/09/20 09:08:39;;;;;;;6.07;2.15;;;;;;;;;;5049992;28;20815;-61
2022/09/20 09:11:10;;;;;;;6.43;1.90;;;;;;;;;;5031946;28;20045;-61
2022/09/20 09:13:47;;;;;;;5.47;2.15;;;;;;;;;;5026709;28;20065;-61
2022/09/20 09:16:15;;;;;;;5.70;2.85;;;;;;;;;;5043442;28;20054;-61
2022/09/20 09:18:43;;;;;;;6.63;1.95;;;;;;;;;;5066124;28;20630;-61
2022/09/20 09:21:19;;;;;;;3.40;2.00;;;;;;;;;;5048888;28;20023;-60
2022/09/20 09:23:56;;;;;;;3.25;1.50;;;;;;;;;;5037074;28;20040;-61
2022/09/20 09:26:23;;;;;;;3.72;2.08;;;;;;;;;;5045102;28;20037;-61
2022/09/20 09:29:17;;;;;;;5.28;1.92;;;;;;;;;;5048531;28;20080;-60
2022/09/20 09:31:44;;;;;;;4.80;2.10;;;;;;;;;;5044546;28;20148;-61
2022/09/20 09:34:30;;;;;;;3.85;2.05;;;;;;;;;;5038287;28;20040;-60
2022/09/20 09:36:57;;;;;;;7.95;1.90;;;;;;;;;;5068084;28;20102;-61
2022/09/20 09:39:30;;;;;;;2.55;1.40;;;;;;;;;;5068227;28;20038;-61
2022/09/20 09:41:59;;;;;;;2.38;1.35;;;;;;;;;;5066914;28;20048;-61
2022/09/20 09:44:32;;;;;;;2.95;1.70;;;;;;;;;;5065580;28;20098;-61
2022/09/20 09:46:58;;;;;;;2.97;1.35;;;;;;;;;;5036588;28;20048;-61
2022/09/20 09:49:35;;;;;;;2.75;1.48;;;;;;;;;;5026215;28;20084;-60
2022/09/20 09:52:23;;;;;;;2.25;1.42;;;;;;;;;;5027524;28;20044;-61
2022/09/20 09:54:58;;;;;;;6.80;1.48;;;;;;;;;;5023279;28;20041;-61
2022/09/20 09:58:14;;;;;;;3.28;1.50;;;;;;;;;;5019962;28;20033;-61
2022/09/20 10:00:45;;;;;;;2.53;1.13;;;;;;;;;;5025850;28;20490;-61
2022/09/20 10:03:25;;;;;;;2.65;1.20;;;;;;;;;;5026562;28;20095;-61
2022/09/20 10:05:56;;;;;;;1.55;1.30;;;;;;;;;;5027922;28;20064;-61
2022/09/20 10:08:30;;;;;;;4.95;1.50;;;;;;;;;;5027338;28;20041;-61
2022/09/20 10:11:09;;;;;;;3.97;1.35;;;;;;;;;;5052887;28;20039;-61
2022/09/20 10:13:53;;;;;;;3.53;1.83;;;;;;;;;;5036756;28;20593;-61
2022/09/20 10:16:46;;;;;;;5.32;2.58;;;;;;;;;;5046439;28;20079;-61
2022/09/20 10:19:57;;;;;;;5.15;2.30;;;;;;;;;;5046868;28;20426;-61
2022/09/20 10:22:37;;;;;;;4.22;2.25;;;;;;;;;;5045649;28;20056;-60
2022/09/20 10:25:22;;;;;;;6.95;1.92;;;;;;;;;;5045690;28;20033;-61
2022/09/20 10:27:57;;;;;;;3.92;2.28;;;;;;;;;;5041819;28;20107;-61
2022/09/20 10:30:26;;;;;;;5.18;1.92;;;;;;;;;;5027429;28;20112;-61
2022/09/20 10:32:53;;;;;;;5.80;2.30;;;;;;;;;;5061761;28;20055;-61
2022/09/20 10:35:28;;;;;;;6.80;1.80;;;;;;;;;;5050935;28;20033;-61
2022/09/20 10:38:32;;;;;;;4.10;1.73;;;;;;;;;;5044885;28;20047;-61
2022/09/20 10:44:04;;;;;;;3.15;1.83;;;;;;;;;;5044445;28;20056;-61
2022/09/20 10:46:50;;;;;;;3.75;1.80;;;;;;;;;;5032312;28;20044;-61
2022/09/20 10:49:35;;;;;;;4.05;1.55;;;;;;;;;;5021178;28;20103;-61
2022/09/20 10:52:14;;;;;;;4.63;1.45;;;;;;;;;;5006759;28;20070;-61
2022/09/20 10:55:13;;;;;;;1.85;1.30;;;;;;;;;;5014249;28;20083;-61
2022/09/20 10:58:04;;;;;;;4.75;1.00;;;;;;;;;;5028691;28;20029;-61
2022/09/20 11:00:44;;;;;;;0.88;0.80;;;;;;;;;;5046269;28;20387;-61
2022/09/20 11:03:48;;;;;;;2.78;0.90;;;;;;;;;;5046663;28;20029;-60
2022/09/20 11:06:31;;;;;;;2.35;0.70;;;;;;;;;;5046170;28;20628;-61
2022/09/20 11:09:00;;;;;;;9.10;0.77;;;;;;;;;;5047169;28;20132;-61
2022/09/20 11:11:33;;;;;;;1.52;0.88;;;;;;;;;;5046437;28;20112;-60
2022/09/20 11:14:01;;;;;;;5.45;1.08;;;;;;;;;;5044832;28;20518;-61
2022/09/20 11:16:31;;;;;;;1.45;0.80;;;;;;;;;;5046592;28;20048;-61
2022/09/20 11:19:08;;;;;;;2.17;0.70;;;;;;;;;;5046766;28;20045;-61
2022/09/20 11:21:42;;;;;;;1.77;0.80;;;;;;;;;;5046362;28;20154;-61
2022/09/20 11:24:27;;;;;;;2.08;0.70;;;;;;;;;;5047060;28;20025;-61
2022/09/20 11:27:18;;;;;;;2.60;1.00;;;;;;;;;;5025815;28;20156;-61
2022/09/20 11:30:02;;;;;;;2.15;0.80;;;;;;;;;;5023884;28;20038;-61
2022/09/20 11:32:35;;;;;;;;;;;;;;;;;;5026916;28;20099;-61
2022/09/20 11:35:15;;;;;;;2.95;1.00;;;;;;;;;;5040436;28;20291;-61
2022/09/20 11:38:01;;;;;;;2.35;0.90;;;;;;;;;;5023860;28;20514;-61
2022/09/20 11:40:31;;;;;;;1.95;0.90;;;;;;;;;;5017114;28;20072;-61
2022/09/20 11:43:00;;;;;;;2.42;0.95;;;;;;;;;;5025117;28;20041;-61
2022/09/20 11:45:28;;;;;;;1.05;0.80;;;;;;;;;;5026229;28;20033;-61
2022/09/20 11:48:00;;;;;;;4.13;1.17;;;;;;;;;;5026254;28;20036;-61
2022/09/20 11:50:41;;;;;;;1.23;0.70;;;;;;;;;;5024943;28;20038;-61
2022/09/20 11:53:44;;;;;;;2.67;0.90;;;;;;;;;;5025059;28;20120;-61
2022/09/20 11:56:31;;;;;;;2.80;0.88;;;;;;;;;;5025066;28;20048;-60
2022/09/20 11:59:03;;;;;;;3.42;1.00;;;;;;;;;;5026010;28;20048;-61
2022/09/20 12:01:37;;;;;;;3.70;1.05;;;;;;;;;;5019773;28;20046;-61
2022/09/20 12:04:12;;;;;;;1.75;1.00;;;;;;;;;;5025931;28;20064;-61
2022/09/20 12:06:40;;;;;;;3.08;1.38;;;;;;;;;;5028884;28;20029;-61
2022/09/20 12:09:23;;;;;;;5.18;1.20;;;;;;;;;;5034462;28;20095;-61
2022/09/20 12:11:51;;;;;;;4.93;1.08;;;;;;;;;;5048871;28;20094;-62
2022/09/20 12:14:21;;;;;;;2.50;0.90;;;;;;;;;;5050310;28;20083;-61
2022/09/20 12:16:48;;;;;;;1.02;0.75;;;;;;;;;;5049058;28;20426;-62
2022/09/20 12:19:32;;;;;;;2.50;0.80;;;;;;;;;;5049512;28;20570;-61
2022/09/20 12:21:57;;;;;;;;;;;;;;;;;;5049368;28;20172;-61
2022/09/20 12:24:24;;;;;;;1.20;0.80;;;;;;;;;;5049153;28;20011;-62
2022/09/20 12:26:55;;;;;;;3.33;0.82;;;;;;;;;;5049485;28;20028;-62
2022/09/20 12:29:23;;;;;;;2.00;0.70;;;;;;;;;;5032763;28;20044;-62
2022/09/20 12:31:51;;;;;;;3.63;0.80;;;;;;;;;;5028859;28;20064;-61
2022/09/20 12:34:16;;;;;;;1.52;0.98;;;;;;;;;;5029416;28;20053;-61
2022/09/20 12:36:52;;;;;;;3.20;1.00;;;;;;;;;;5033308;28;20060;-61
2022/09/20 12:39:21;;;;;;;3.78;1.20;;;;;;;;;;5049471;28;20401;-62
2022/09/20 12:41:51;;;;;;;1.55;0.75;;;;;;;;;;5068198;28;20538;-61
2022/09/20 12:44:40;;;;;;;4.60;0.98;;;;;;;;;;5035758;28;20037;-62
2022/09/20 12:47:17;;;;;;;4.25;1.00;;;;;;;;;;5028605;28;20717;-61
2022/09/20 12:52:56;;;;;;;5.65;1.17;;;;;;;;;;5048581;28;20122;-61
2022/09/20 12:55:44;;;;;;;4.82;1.00;;;;;;;;;;5047766;28;20050;-62
2022/09/20 12:58:13;;;;;;;3.40;1.08;;;;;;;;;;5030764;28;20045;-62
2022/09/20 13:01:10;;;;;;;4.65;0.80;;;;;;;;;;5067914;28;20032;-62
2022/09/20 13:03:36;;;;;;;2.45;0.70;;;;;;;;;;5067372;28;20074;-62
2022/09/20 13:08:38;;;;;;;3.00;0.80;;;;;;;;;;5067105;28;20037;-61
2022/09/20 13:11:11;;;;;;;2.72;0.70;;;;;;;;;;5067254;28;20432;-62
2022/09/20 13:13:45;;;;;;;1.88;0.90;;;;;;;;;;5067513;28;20151;-62
2022/09/20 13:16:23;;;;;;;1.65;0.90;;;;;;;;;;5058782;28;20087;-61
2022/09/20 13:19:00;;;;;;;3.03;0.93;;;;;;;;;;5047237;28;20029;-61
2022/09/20 13:21:27;;;;;;;2.58;0.90;;;;;;;;;;5043042;28;20048;-62
2022/09/20 13:23:54;;;;;;;0.88;0.70;;;;;;;;;;5027542;28;20156;-62
2022/09/20 13:26:26;;;;;;;4.47;1.05;;;;;;;;;;5042564;28;20033;-62
2022/09/20 13:28:54;;;;;;;1.88;0.90;;;;;;;;;;5047019;28;20132;-62
2022/09/20 13:31:19;;;;;;;2.35;0.75;;;;;;;;;;5046500;28;20042;-62
2022/09/20 13:33:44;;;;;;;1.33;0.80;;;;;;;;;;5046897;28;20037;-61
2022/09/20 13:36:10;;;;;;;0.52;0.50;;;;;;;;;;5048290;28;20029;-61
2022/09/20 13:38:37;;;;;;;1.08;0.80;;;;;;;;;;5047327;28;20044;-61
2022/09/20 13:41:09;;;;;;;2.47;0.90;;;;;;;;;;5045656;28;20056;-62
2022/09/20 13:43:43;;;;;;;1.73;1.10;;;;;;;;;;5047553;28;20128;-62
2022/09/20 13:46:15;;;;;;;2.60;0.90;;;;;;;;;;5047425;28;20039;-62
2022/09/20 13:48:41;;;;;;;1.15;0.98;;;;;;;;;;5047388;28;20310;-62
2022/09/20 13:51:24;;;;;;;1.70;0.80;;;;;;;;;;5048311;28;20637;-62
2022/09/20 13:53:49;;;;;;;3.55;1.20;;;;;;;;;;5027433;28;20040;-62
2022/09/20 13:56:22;;;;;;;4.63;1.15;;;;;;;;;;5039359;28;20041;-62
2022/09/20 13:58:49;;;;;;;2.85;1.13;;;;;;;;;;5027359;28;20099;-61
2022/09/20 14:01:30;;;;;;;2.50;0.85;;;;;;;;;;5027343;28;20531;-61
2022/09/20 14:04:26;;;;;;;1.63;0.70;;;;;;;;;;5025487;28;20095;-61
2022/09/20 14:06:53;;;;;;;1.80;0.80;;;;;;;;;;5027220;28;20122;-62
2022/09/20 14:09:38;;;;;;;3.78;1.05;;;;;;;;;;5027092;28;20372;-61
2022/09/20 14:12:05;;;;;;;1.30;0.88;;;;;;;;;;5026764;28;20144;-61
2022/09/20 14:14:32;;;;;;;2.85;0.93;;;;;;;;;;5027614;28;20042;-62
2022/09/20 14:17:00;;;;;;;4.85;0.90;;;;;;;;;;5032718;28;20045;-61
2022/09/20 14:19:36;;;;;;;3.55;0.98;;;;;;;;;;5026693;28;20078;-61
2022/09/20 14:22:05;;;;;;;1.90;1.10;;;;;;;;;;5033794;28;20663;-61
2022/09/20 14:24:36;;;;;;;3.17;1.40;;;;;;;;;;5029287;28;20564;-61
2022/09/20 14:27:21;;;;;;;3.22;1.35;;;;;;;;;;5045577;28;20133;-61
2022/09/20 14:29:47;;;;;;;2.35;1.35;;;;;;;;;;5045867;28;20152;-61
2022/09/20 14:32:15;;;;;;;4.10;1.30;;;;;;;;;;5041471;28;20033;-62
2022/09/20 14:34:42;;;;;;;3.88;1.50;;;;;;;;;;5046605;28;20069;-61
2022/09/20 14:37:21;;;;;;;5.40;1.38;;;;;;;;;;5046417;28;20506;-62
2022/09/20 14:39:49;;;;;;;2.78;1.20;;;;;;;;;;5046754;28;20576;-62
2022/09/20 14:42:22;;;;;;;2.03;1.02;;;;;;;;;;5046352;28;20509;-62
2022/09/20 14:44:51;;;;;;;5.90;1.30;;;;;;;;;;5066993;28;20127;-62
2022/09/20 14:47:24;;;;;;;2.58;0.80;;;;;;;;;;5049009;28;20043;-61
2022/09/20 14:49:50;;;;;;;3.42;0.90;;;;;;;;;;5041714;28;20041;-61
2022/09/20 14:52:25;;;;;;;1.02;0.82;;;;;;;;;;5022151;28;20055;-61
2022/09/20 14:55:15;;;;;;;1.77;0.80;;;;;;;;;;5026062;28;20091;-61
2022/09/20 14:57:41;;;;;;;1.75;0.77;;;;;;;;;;5026384;28;20033;-61
2022/09/20 15:00:10;;;;;;;1.15;0.70;;;;;;;;;;5026828;28;20058;-61
2022/09/20 15:02:36;;;;;;;1.63;0.70;;;;;;;;;;5025788;28;20514;-61
2022/09/20 15:05:01;;;;;;;1.55;0.80;;;;;;;;;;5025284;28;20510;-61
2022/09/20 15:07:27;;;;;;;1.48;0.80;;;;;;;;;;5026455;28;20037;-61
2022/09/20 15:09:53;;;;;;;3.65;1.10;;;;;;;;;;5032503;28;20410;-61
2022/09/20 15:12:20;;;;;;;2.83;1.25;;;;;;;;;;5027204;28;20573;-61
2022/09/20 15:14:46;;;;;;;2.95;1.10;;;;;;;;;;5025615;28;20044;-62
2022/09/20 15:17:19;;;;;;;2.28;1.63;;;;;;;;;;5025499;28;20507;-61
2022/09/20 15:19:46;;;;;;;5.72;0.93;;;;;;;;;;5025862;28;20044;-61
2022/09/20 15:22:12;;;;;;;1.23;0.52;;;;;;;;;;5026270;28;20106;-61
2022/09/20 15:24:37;;;;;;;0.93;0.82;;;;;;;;;;5026351;28;20021;-61
2022/09/20 15:27:03;;;;;;;3.45;0.80;;;;;;;;;;5044920;28;20029;-61
2022/09/20 15:29:29;;;;;;;0.95;0.68;;;;;;;;;;5028042;28;20124;-61
2022/09/20 15:31:55;;;;;;;1.77;0.70;;;;;;;;;;5025367;28;20120;-61
2022/09/20 15:34:20;;;;;;;0.63;0.60;;;;;;;;;;5032431;28;20041;-62
2022/09/20 15:36:45;;;;;;;2.30;0.77;;;;;;;;;;5048681;28;20036;-61
2022/09/20 15:39:11;;;;;;;1.77;0.90;;;;;;;;;;5045414;28;20043;-61
2022/09/20 15:41:37;;;;;;;1.27;0.80;;;;;;;;;;5048437;28;20085;-61
2022/09/20 15:44:03;;;;;;;1.85;0.75;;;;;;;;;;5049468;28;20685;-62
2022/09/20 15:46:29;;;;;;;0.65;0.65;;;;;;;;;;5049716;28;20045;-61
2022/09/20 15:48:58;;;;;;;4.38;0.80;;;;;;;;;;5049593;28;20110;-61